Terminal Aerodrome Forecast
Issued by NWS

Home | Current Version | Previous Version | Graphics & Text | Print | Product List | Glossary Off
Versions: 1 2 3 4 5 6 7 8 9 10 11 12 13 14

000
FTUS45 KGGW 070500
TAFSDY
TAF
KSDY 070520Z 0706/0806 32013KT P6SM OVC050
     FM071200 33015KT P6SM BKN020
     FM071900 33015KT P6SM SCT030 BKN200
     FM080200 34007KT P6SM BKN120
      AMD LTD TO CLD VIS AND WIND=

USA.gov is the U.S. government's official web portal to all federal, state and local government web resources and services.